Time;durP1;ratioP1;P1;durP2;ratioP2;P2;SDS_P1;SDS_P2;PMS_P1;PMS_P2;Temp;Humidity;BMP_temperature;BMP_pressure;BME280_temperature;BME280_humidity;BME280_pressure;Samples;Min_cycle;Max_cycle;Signal;HPM_P1;HPM_P2
2022/01/31 00:02:18;;;;;;;29.75;6.38;;;4.60;99.90;;;;;;4952477;28;20076;-54
2022/01/31 00:04:44;;;;;;;19.92;5.72;;;4.60;99.90;;;;;;5013710;28;20030;-53
2022/01/31 00:07:11;;;;;;;25.30;7.65;;;4.60;99.90;;;;;;4982441;28;20045;-55
2022/01/31 00:09:42;;;;;;;21.75;5.72;;;4.60;99.90;;;;;;4986746;28;20088;-53
2022/01/31 00:12:15;;;;;;;27.25;7.55;;;4.60;99.90;;;;;;4963354;28;20037;-58
2022/01/31 00:14:43;;;;;;;22.20;7.30;;;4.60;99.90;;;;;;4995979;28;20037;-55
2022/01/31 00:17:10;;;;;;;22.13;8.15;;;4.60;99.90;;;;;;4970997;28;20076;-53
2022/01/31 00:19:38;;;;;;;22.90;8.40;;;4.60;99.90;;;;;;4987125;28;20049;-55
2022/01/31 00:22:05;;;;;;;26.52;8.43;;;4.60;99.90;;;;;;5005591;28;20026;-54
2022/01/31 00:24:31;;;;;;;21.70;9.68;;;4.60;99.90;;;;;;5005171;28;20074;-57
2022/01/31 00:26:57;;;;;;;24.10;8.85;;;4.60;99.90;;;;;;4979438;28;20054;-56
2022/01/31 00:29:22;;;;;;;20.38;8.55;;;4.60;99.90;;;;;;4991638;28;20381;-52
2022/01/31 00:31:48;;;;;;;23.58;8.90;;;4.60;99.90;;;;;;4993399;28;21571;-53
2022/01/31 00:34:14;;;;;;;30.60;8.73;;;4.60;99.90;;;;;;4993356;28;20399;-55
2022/01/31 00:36:39;;;;;;;22.88;7.13;;;4.60;99.90;;;;;;4990624;28;20029;-56
2022/01/31 00:39:06;;;;;;;23.50;8.48;;;4.60;99.90;;;;;;4990064;28;20415;-54
2022/01/31 00:41:31;;;;;;;19.10;6.90;;;4.60;99.90;;;;;;4993923;28;20045;-53
2022/01/31 00:44:16;;;;;;;24.17;8.13;;;4.60;99.90;;;;;;4993980;28;20041;-54
2022/01/31 00:46:48;;;;;;;19.13;6.50;;;4.60;99.90;;;;;;4997236;28;20040;-56
2022/01/31 00:50:06;;;;;;;21.10;6.82;;;4.50;99.90;;;;;;4993180;28;20045;-52
2022/01/31 00:52:03;;;;;;;18.63;6.45;;;4.50;99.90;;;;;;4991689;28;20400;-56
2022/01/31 00:54:32;;;;;;;24.27;7.53;;;4.60;99.90;;;;;;4991202;28;20046;-56
2022/01/31 00:56:58;;;;;;;28.05;8.63;;;4.60;99.90;;;;;;4998023;28;20303;-55
2022/01/31 00:59:24;;;;;;;19.67;7.65;;;4.60;99.90;;;;;;4993616;28;20048;-54
2022/01/31 01:01:50;;;;;;;23.48;7.90;;;4.60;99.90;;;;;;4982053;28;20052;-54
2022/01/31 01:04:16;;;;;;;27.08;8.07;;;4.50;99.90;;;;;;4990685;28;20481;-53
2022/01/31 01:06:41;;;;;;;26.17;7.90;;;4.50;99.90;;;;;;4991030;28;20041;-56
2022/01/31 01:09:08;;;;;;;25.25;8.82;;;4.50;99.90;;;;;;5002508;27;20035;-53
2022/01/31 01:11:34;;;;;;;29.38;10.10;;;4.50;99.90;;;;;;4981151;28;20036;-56
2022/01/31 01:14:00;;;;;;;26.63;8.70;;;4.50;99.90;;;;;;4992265;28;20045;-54
2022/01/31 01:16:26;;;;;;;23.80;8.85;;;4.50;99.90;;;;;;4991631;28;20072;-53
2022/01/31 01:18:51;;;;;;;22.98;9.73;;;4.50;99.90;;;;;;4988880;28;20094;-55
2022/01/31 01:21:17;;;;;;;18.25;8.73;;;4.50;99.90;;;;;;5009374;28;20060;-55
2022/01/31 01:23:43;;;;;;;20.20;9.88;;;4.50;99.90;;;;;;4998557;28;20378;-55
2022/01/31 01:26:09;;;;;;;22.38;10.32;;;4.50;99.90;;;;;;4994999;28;20466;-55
2022/01/31 01:28:34;;;;;;;23.27;11.05;;;4.50;99.90;;;;;;5005514;28;20042;-55
2022/01/31 01:31:00;;;;;;;19.95;9.73;;;4.50;99.90;;;;;;5005308;28;20025;-54
2022/01/31 01:33:27;;;;;;;14.50;7.95;;;4.50;99.90;;;;;;4973437;28;20050;-55
2022/01/31 01:35:54;;;;;;;11.52;5.80;;;4.40;99.90;;;;;;5002564;28;20369;-54
2022/01/31 01:38:27;;;;;;;11.82;5.30;;;4.40;99.90;;;;;;4988193;28;20042;-55
2022/01/31 01:40:54;;;;;;;10.73;5.75;;;4.30;99.90;;;;;;4986110;28;20087;-54
2022/01/31 01:43:21;;;;;;;10.77;4.90;;;4.30;99.90;;;;;;4999059;28;20873;-56
2022/01/31 01:45:51;;;;;;;8.07;3.67;;;4.30;99.90;;;;;;4991674;28;20141;-52
2022/01/31 01:48:16;;;;;;;11.32;4.18;;;4.20;99.90;;;;;;4987428;28;20381;-55
2022/01/31 01:50:42;;;;;;;8.20;3.92;;;4.20;99.90;;;;;;5000366;28;20029;-55
2022/01/31 01:53:08;;;;;;;9.88;4.65;;;4.30;99.90;;;;;;4986561;28;20488;-56
2022/01/31 01:55:35;;;;;;;9.32;5.10;;;4.20;99.90;;;;;;4988575;28;20050;-56
2022/01/31 01:58:03;;;;;;;11.27;6.50;;;4.20;99.90;;;;;;4992142;28;20049;-54
2022/01/31 02:00:43;;;;;;;17.33;5.68;;;4.20;99.90;;;;;;4991532;28;20045;-54
2022/01/31 02:03:09;;;;;;;9.27;5.25;;;4.20;99.90;;;;;;4990430;28;20695;-56
2022/01/31 02:05:35;;;;;;;8.43;4.85;;;4.20;99.90;;;;;;4993170;28;20500;-54
2022/01/31 02:08:01;;;;;;;10.90;6.03;;;4.30;99.90;;;;;;4986427;28;20144;-55
2022/01/31 02:10:28;;;;;;;13.38;6.18;;;4.20;99.90;;;;;;4971340;28;20056;-55
2022/01/31 02:12:53;;;;;;;12.73;6.93;;;4.30;99.90;;;;;;5000250;28;20831;-54
2022/01/31 02:15:23;;;;;;;13.18;7.30;;;4.30;99.90;;;;;;5003566;28;20052;-55
2022/01/31 02:17:49;;;;;;;18.88;7.63;;;4.30;99.90;;;;;;4985546;28;20037;-55
2022/01/31 02:20:15;;;;;;;17.42;7.40;;;4.30;99.90;;;;;;4982912;28;20114;-55
2022/01/31 02:22:40;;;;;;;12.43;7.15;;;4.40;99.90;;;;;;4984706;28;20105;-55
2022/01/31 02:25:07;;;;;;;12.23;6.80;;;4.30;99.90;;;;;;4976611;28;20473;-54
2022/01/31 02:27:37;;;;;;;18.50;7.60;;;4.50;99.90;;;;;;4992732;28;20049;-57
2022/01/31 02:30:09;;;;;;;18.50;7.45;;;4.50;99.90;;;;;;4962826;28;21866;-55
2022/01/31 02:32:35;;;;;;;17.67;7.38;;;4.60;99.90;;;;;;4970587;28;20037;-54
2022/01/31 02:35:02;;;;;;;17.92;8.32;;;4.60;99.90;;;;;;4997647;28;20037;-54
2022/01/31 02:37:27;;;;;;;15.65;7.65;;;4.60;99.90;;;;;;4968046;28;20120;-54
2022/01/31 02:39:53;;;;;;;15.77;7.13;;;4.60;99.90;;;;;;5006405;28;20102;-53
2022/01/31 02:42:19;;;;;;;14.90;6.75;;;4.70;99.90;;;;;;4990979;28;20170;-54
2022/01/31 02:44:46;;;;;;;15.57;6.18;;;4.70;99.90;;;;;;4984584;28;20476;-52
2022/01/31 02:47:22;;;;;;;14.77;5.63;;;4.80;99.90;;;;;;4999536;28;20031;-55
2022/01/31 02:49:53;;;;;;;18.63;5.20;;;4.80;99.90;;;;;;4988029;28;20370;-55
2022/01/31 02:52:19;;;;;;;17.20;4.82;;;4.90;99.90;;;;;;4984416;28;20077;-54
2022/01/31 02:54:45;;;;;;;19.20;5.53;;;5.00;99.90;;;;;;4988535;28;20064;-54
2022/01/31 02:57:11;;;;;;;27.92;6.43;;;5.10;99.90;;;;;;4994264;28;20553;-55
2022/01/31 02:59:37;;;;;;;20.63;5.88;;;5.30;99.90;;;;;;4972532;28;20045;-55
2022/01/31 03:02:04;;;;;;;20.95;6.38;;;5.40;99.90;;;;;;5010284;28;20133;-55
2022/01/31 03:04:30;;;;;;;32.70;6.50;;;5.50;99.90;;;;;;4989762;28;20045;-55
2022/01/31 03:06:55;;;;;;;28.67;5.43;;;5.70;99.90;;;;;;4986791;28;20381;-57
2022/01/31 03:09:22;;;;;;;27.17;5.10;;;5.80;99.90;;;;;;4999210;28;20426;-56
2022/01/31 03:11:48;;;;;;;25.73;5.40;;;5.80;99.90;;;;;;5002584;28;20129;-56
2022/01/31 03:14:19;;;;;;;35.92;6.18;;;5.80;99.90;;;;;;4984596;28;20038;-54
2022/01/31 03:16:49;;;;;;;26.98;5.55;;;5.90;99.90;;;;;;4969386;28;20403;-56
2022/01/31 03:19:16;;;;;;;30.23;5.93;;;6.00;99.90;;;;;;4973585;28;20048;-57
2022/01/31 03:21:43;;;;;;;27.75;5.63;;;6.10;99.90;;;;;;4981925;28;20080;-56
2022/01/31 03:24:09;;;;;;;31.35;5.80;;;6.20;99.90;;;;;;4964918;28;20443;-56
2022/01/31 03:26:36;;;;;;;27.13;5.85;;;6.30;99.90;;;;;;4982909;28;20138;-54
2022/01/31 03:29:02;;;;;;;24.38;4.60;;;6.30;99.90;;;;;;4975890;28;20041;-55
2022/01/31 03:31:28;;;;;;;26.20;5.28;;;6.40;99.90;;;;;;4986133;28;20449;-55
2022/01/31 03:33:54;;;;;;;27.15;5.43;;;6.40;99.90;;;;;;4978822;28;20046;-56
2022/01/31 03:36:20;;;;;;;30.20;5.25;;;6.40;99.90;;;;;;4984086;28;20083;-54
2022/01/31 03:38:47;;;;;;;22.90;4.43;;;6.40;99.90;;;;;;4984291;28;20211;-55
2022/01/31 03:41:15;;;;;;;34.72;5.78;;;6.30;99.90;;;;;;5001830;28;20045;-56
2022/01/31 03:43:41;;;;;;;20.00;3.75;;;6.30;99.90;;;;;;5006552;28;20101;-56
2022/01/31 03:46:07;;;;;;;21.60;4.25;;;6.30;99.90;;;;;;4978433;28;20053;-56
2022/01/31 03:48:33;;;;;;;34.50;5.90;;;6.20;99.90;;;;;;4976552;28;20377;-55
2022/01/31 03:51:02;;;;;;;20.67;5.28;;;6.20;99.90;;;;;;4984174;28;20045;-56
2022/01/31 03:53:29;;;;;;;18.38;3.88;;;6.20;99.90;;;;;;5014249;23;20069;-59
2022/01/31 03:55:55;;;;;;;17.58;4.38;;;6.20;99.90;;;;;;4984640;28;20091;-54
2022/01/31 03:58:21;;;;;;;25.42;3.97;;;6.20;99.90;;;;;;4989022;28;20038;-60
2022/01/31 04:00:47;;;;;;;22.20;4.63;;;6.20;99.90;;;;;;4990230;28;20042;-60
2022/01/31 04:03:13;;;;;;;23.35;4.65;;;6.20;99.90;;;;;;4982082;28;20026;-59
2022/01/31 04:05:39;;;;;;;33.80;4.10;;;6.20;99.90;;;;;;5059377;28;20038;-59
2022/01/31 04:08:06;;;;;;;23.75;4.25;;;6.20;99.90;;;;;;4980254;28;20056;-59
2022/01/31 04:10:32;;;;;;;23.27;4.93;;;6.20;99.90;;;;;;4990104;28;20519;-59
2022/01/31 04:12:58;;;;;;;23.45;4.18;;;6.20;99.90;;;;;;4992756;28;20422;-59
2022/01/31 04:15:24;;;;;;;24.58;4.78;;;6.20;99.90;;;;;;4984825;28;20042;-60
2022/01/31 04:17:49;;;;;;;22.30;4.43;;;6.20;99.90;;;;;;4993311;28;20037;-60
2022/01/31 04:20:16;;;;;;;20.95;3.95;;;6.20;99.90;;;;;;4986201;28;20080;-60
2022/01/31 04:22:50;;;;;;;21.40;4.15;;;6.20;99.90;;;;;;4985771;28;20514;-60
2022/01/31 04:28:21;;;;;;;25.70;4.30;;;6.10;99.90;;;;;;5017330;28;20048;-61
2022/01/31 04:30:57;;;;;;;16.75;3.67;;;5.90;99.90;;;;;;4984513;28;20072;-60
2022/01/31 04:33:24;;;;;;;14.48;2.75;;;5.90;99.90;;;;;;5050983;28;20054;-61
2022/01/31 04:35:50;;;;;;;16.27;3.28;;;5.90;99.90;;;;;;4986377;28;20050;-60
2022/01/31 04:38:16;;;;;;;19.85;3.42;;;5.90;99.90;;;;;;5058025;28;20110;-60
2022/01/31 04:40:42;;;;;;;16.77;3.65;;;5.80;99.90;;;;;;5050510;28;20624;-60
2022/01/31 04:43:07;;;;;;;14.68;2.97;;;5.90;99.90;;;;;;4980553;28;20038;-61
2022/01/31 04:45:33;;;;;;;18.23;2.70;;;5.90;99.90;;;;;;5057937;28;20050;-58
2022/01/31 04:47:59;;;;;;;10.57;2.17;;;5.80;99.90;;;;;;5043989;28;20056;-59
2022/01/31 04:50:25;;;;;;;9.65;1.70;;;5.70;99.90;;;;;;5041123;28;20072;-60
2022/01/31 04:52:51;;;;;;;8.80;1.58;;;5.60;99.90;;;;;;4971671;28;20076;-60
2022/01/31 04:55:16;;;;;;;10.15;2.38;;;5.40;99.90;;;;;;4976518;28;20043;-58
2022/01/31 04:57:42;;;;;;;8.95;1.63;;;5.40;99.90;;;;;;5056798;28;20080;-58
2022/01/31 05:00:09;;;;;;;14.80;1.77;;;5.40;99.90;;;;;;5053211;28;20034;-58
2022/01/31 05:02:36;;;;;;;16.85;2.25;;;5.40;99.90;;;;;;4983915;28;20038;-58
2022/01/31 05:05:03;;;;;;;18.08;2.80;;;5.40;99.90;;;;;;5036878;28;20302;-58
2022/01/31 05:07:29;;;;;;;14.13;2.17;;;5.40;99.90;;;;;;5045622;28;20133;-59
2022/01/31 05:09:54;;;;;;;14.50;2.97;;;5.40;99.90;;;;;;5046463;28;20488;-60
2022/01/31 05:12:21;;;;;;;9.45;2.05;;;5.40;99.90;;;;;;4979735;28;20216;-59
2022/01/31 05:14:46;;;;;;;9.52;2.17;;;5.50;99.90;;;;;;4984226;28;20171;-59
2022/01/31 05:17:12;;;;;;;19.00;2.92;;;5.50;99.90;;;;;;5053375;28;21016;-59
2022/01/31 05:19:38;;;;;;;14.05;2.55;;;5.50;99.90;;;;;;4988605;28;20026;-59
2022/01/31 05:22:04;;;;;;;14.07;2.08;;;5.40;99.90;;;;;;5045475;28;20056;-60
2022/01/31 05:24:30;;;;;;;27.55;2.45;;;5.50;99.90;;;;;;4978586;28;20103;-59
2022/01/31 05:26:56;;;;;;;13.68;2.88;;;5.50;99.90;;;;;;4986795;28;20052;-60
2022/01/31 05:29:22;;;;;;;15.05;2.42;;;5.50;99.90;;;;;;5029032;28;20042;-60
2022/01/31 05:31:52;;;;;;;14.32;2.55;;;5.50;99.90;;;;;;5051349;28;20422;-59
2022/01/31 05:34:20;;;;;;;15.13;2.92;;;5.50;99.90;;;;;;5050941;28;20051;-60
2022/01/31 05:36:46;;;;;;;15.80;3.13;;;5.50;99.90;;;;;;5048590;28;20057;-60
2022/01/31 05:39:12;;;;;;;17.75;2.47;;;5.50;99.90;;;;;;4983689;28;20061;-60
2022/01/31 05:41:38;;;;;;;22.00;3.25;;;5.50;99.90;;;;;;4981809;28;20112;-60
2022/01/31 05:44:04;;;;;;;26.88;4.10;;;5.50;99.90;;;;;;5049176;28;20125;-59
2022/01/31 05:46:29;;;;;;;16.67;2.92;;;5.50;99.90;;;;;;5051172;28;20512;-59
2022/01/31 05:48:55;;;;;;;25.00;3.40;;;5.50;99.90;;;;;;5051720;28;20046;-58
2022/01/31 05:51:22;;;;;;;23.75;4.18;;;5.50;99.90;;;;;;5046535;28;20034;-59
2022/01/31 05:53:50;;;;;;;20.38;3.92;;;5.50;99.90;;;;;;4976362;28;20061;-59
2022/01/31 05:56:17;;;;;;;18.40;3.20;;;5.50;99.90;;;;;;4980143;28;20134;-59
2022/01/31 05:58:44;;;;;;;23.75;4.00;;;5.60;99.90;;;;;;4986153;28;20423;-59
2022/01/31 06:01:10;;;;;;;22.38;3.67;;;5.60;99.90;;;;;;5046743;28;20048;-60
2022/01/31 06:03:37;;;;;;;17.77;2.75;;;5.60;99.90;;;;;;5052983;28;20038;-60
2022/01/31 06:06:04;;;;;;;16.30;2.30;;;5.60;99.90;;;;;;4977096;28;20054;-61
2022/01/31 06:08:30;;;;;;;14.77;2.30;;;5.60;99.90;;;;;;4981135;28;20260;-60
2022/01/31 06:10:56;;;;;;;16.05;2.78;;;5.60;99.90;;;;;;5048498;28;20174;-60
2022/01/31 06:13:29;;;;;;;17.67;2.88;;;5.60;99.90;;;;;;5050069;28;21591;-60
2022/01/31 06:15:54;;;;;;;15.75;3.65;;;5.60;99.90;;;;;;4987025;28;20065;-59
2022/01/31 06:18:20;;;;;;;18.05;2.20;;;5.60;99.90;;;;;;5048586;28;20046;-60
2022/01/31 06:20:46;;;;;;;18.98;2.72;;;5.60;99.90;;;;;;4982240;28;20069;-59
2022/01/31 06:23:12;;;;;;;17.10;2.40;;;5.60;99.90;;;;;;5046758;28;20038;-59
2022/01/31 06:25:39;;;;;;;21.90;2.92;;;5.60;99.90;;;;;;4983802;28;20046;-59
2022/01/31 06:28:06;;;;;;;19.00;3.22;;;5.70;99.90;;;;;;4982125;28;20080;-60
2022/01/31 06:30:33;;;;;;;16.50;2.38;;;5.70;99.90;;;;;;4979707;28;20057;-61
2022/01/31 06:32:59;;;;;;;12.48;2.88;;;5.70;99.90;;;;;;4978710;28;20041;-60
2022/01/31 06:35:25;;;;;;;7.90;1.88;;;5.60;99.90;;;;;;5046281;28;20058;-60
2022/01/31 06:37:52;;;;;;;12.20;2.40;;;5.60;99.90;;;;;;4986547;28;20489;-60
2022/01/31 06:40:17;;;;;;;20.33;2.55;;;5.60;99.90;;;;;;5031641;28;20558;-60
2022/01/31 06:42:43;;;;;;;13.48;1.98;;;5.60;99.90;;;;;;5048355;28;20971;-60
2022/01/31 06:45:09;;;;;;;9.88;2.17;;;5.50;99.90;;;;;;4984478;28;20123;-59
2022/01/31 06:47:36;;;;;;;13.18;2.33;;;5.50;99.90;;;;;;5047734;28;20442;-58
2022/01/31 06:50:04;;;;;;;16.63;2.65;;;5.50;99.90;;;;;;4980926;28;20503;-59
2022/01/31 06:52:33;;;;;;;17.63;2.53;;;5.50;99.90;;;;;;4978430;28;20047;-60
2022/01/31 06:55:03;;;;;;;15.00;2.58;;;5.50;99.90;;;;;;4986450;28;20039;-60
2022/01/31 06:57:33;;;;;;;17.40;3.47;;;5.50;99.90;;;;;;5033033;28;20110;-60
2022/01/31 07:00:00;;;;;;;23.23;3.72;;;5.60;99.90;;;;;;4978503;28;20034;-60
2022/01/31 07:02:26;;;;;;;19.60;2.88;;;5.60;99.90;;;;;;5043861;28;20696;-60
2022/01/31 07:04:52;;;;;;;25.77;3.50;;;5.60;99.90;;;;;;5046385;28;20054;-56
2022/01/31 07:07:18;;;;;;;13.00;2.55;;;5.60;99.90;;;;;;5043138;28;20069;-59
2022/01/31 07:09:44;;;;;;;19.05;3.60;;;5.70;99.90;;;;;;4973724;28;20053;-56
2022/01/31 07:12:12;;;;;;;20.80;3.17;;;5.70;99.90;;;;;;4980768;28;20045;-59
2022/01/31 07:14:38;;;;;;;22.02;3.42;;;5.70;99.90;;;;;;5047617;28;20207;-59
2022/01/31 07:17:06;;;;;;;18.70;3.13;;;5.80;99.90;;;;;;4980378;28;20053;-58
2022/01/31 07:19:35;;;;;;;26.98;4.32;;;5.70;99.90;;;;;;5048861;28;20034;-60
2022/01/31 07:22:04;;;;;;;30.58;4.88;;;5.80;99.90;;;;;;5049806;28;20286;-60
2022/01/31 07:27:03;;;;;;;37.03;7.13;;;5.90;99.90;;;;;;4981421;28;20114;-60
2022/01/31 07:29:29;;;;;;;33.08;5.80;;;5.90;99.90;;;;;;5053749;28;20606;-59
2022/01/31 07:31:56;;;;;;;28.60;4.78;;;6.00;99.90;;;;;;4982294;28;20046;-58
2022/01/31 07:34:22;;;;;;;36.88;6.05;;;6.00;99.90;;;;;;5052222;28;20053;-59
2022/01/31 07:36:48;;;;;;;29.73;5.13;;;6.10;99.90;;;;;;4976824;28;20783;-58
2022/01/31 07:39:15;;;;;;;27.13;5.20;;;6.10;99.90;;;;;;5045576;28;20046;-58
2022/01/31 07:41:42;;;;;;;37.17;5.78;;;6.10;99.90;;;;;;4981732;28;20182;-60
2022/01/31 07:44:08;;;;;;;28.88;5.05;;;6.10;99.90;;;;;;5051516;28;20467;-58
2022/01/31 07:46:34;;;;;;;40.42;6.68;;;6.20;99.90;;;;;;4976006;28;20133;-60
2022/01/31 07:49:00;;;;;;;34.67;4.90;;;6.20;99.90;;;;;;4980584;28;20052;-60
2022/01/31 07:51:26;;;;;;;30.98;5.95;;;6.30;99.90;;;;;;5045739;28;20050;-58
2022/01/31 07:53:51;;;;;;;39.20;5.90;;;6.20;99.90;;;;;;4986437;28;20507;-59
2022/01/31 07:56:18;;;;;;;36.72;6.75;;;6.30;99.90;;;;;;4983009;28;20052;-59
2022/01/31 07:58:44;;;;;;;26.60;4.07;;;6.30;99.90;;;;;;4997923;28;20045;-58
2022/01/31 08:01:10;;;;;;;18.83;3.35;;;6.30;99.90;;;;;;4995412;28;21104;-59
2022/01/31 08:03:36;;;;;;;29.73;4.90;;;6.30;99.90;;;;;;5054776;28;20361;-59
2022/01/31 08:06:03;;;;;;;20.83;3.53;;;6.30;99.90;;;;;;5058751;28;20045;-59
2022/01/31 08:08:30;;;;;;;17.42;3.13;;;6.30;99.90;;;;;;5060439;28;20081;-58
2022/01/31 08:11:00;;;;;;;21.85;3.05;;;6.30;99.90;;;;;;4994520;28;20045;-58
2022/01/31 08:13:26;;;;;;;21.85;3.35;;;6.30;99.90;;;;;;5049984;28;20495;-57
2022/01/31 08:16:09;;;;;;;15.65;3.03;;;6.30;99.90;;;;;;4988698;28;20073;-58
2022/01/31 08:18:41;;;;;;;12.77;2.78;;;6.30;99.90;;;;;;5056670;28;20080;-60
2022/01/31 08:21:08;;;;;;;14.60;2.70;;;6.40;99.90;;;;;;4984398;28;20034;-57
2022/01/31 08:23:34;;;;;;;16.58;2.28;;;6.30;99.90;;;;;;4985323;28;20139;-60
2022/01/31 08:26:02;;;;;;;16.13;4.07;;;6.30;99.90;;;;;;4981367;28;20199;-62
2022/01/31 08:28:55;;;;;;;11.82;1.98;;;6.40;99.90;;;;;;5057490;28;20092;-60
2022/01/31 08:31:28;;;;;;;13.90;2.50;;;6.40;99.90;;;;;;5048043;28;20046;-61
2022/01/31 08:36:34;;;;;;;24.77;3.03;;;6.30;99.90;;;;;;4993806;28;20050;-62
2022/01/31 08:39:01;;;;;;;17.98;2.97;;;6.40;99.90;;;;;;4993069;28;20415;-60
2022/01/31 08:41:27;;;;;;;15.25;2.80;;;6.40;99.90;;;;;;4990536;28;20357;-61
2022/01/31 08:43:53;;;;;;;19.30;3.10;;;6.40;99.90;;;;;;5059275;28;20889;-61
2022/01/31 08:46:19;;;;;;;16.45;2.55;;;6.40;99.90;;;;;;5062788;28;20050;-62
2022/01/31 08:48:45;;;;;;;18.70;2.70;;;6.50;99.90;;;;;;5060258;28;20065;-61
2022/01/31 08:51:12;;;;;;;21.52;2.83;;;6.60;99.90;;;;;;5053281;28;20081;-62
2022/01/31 08:53:39;;;;;;;18.58;2.72;;;6.60;99.90;;;;;;5060426;28;20091;-61
2022/01/31 08:56:11;;;;;;;12.45;2.30;;;6.60;99.90;;;;;;5063231;28;20037;-61
2022/01/31 08:58:44;;;;;;;16.98;2.17;;;6.60;99.90;;;;;;5060951;28;20048;-61
2022/01/31 09:01:12;;;;;;;12.52;2.30;;;6.70;99.90;;;;;;4992354;28;20134;-62
2022/01/31 09:06:08;;;;;;;11.60;2.67;;;6.60;99.90;;;;;;5068236;27;20074;-61
2022/01/31 09:08:34;;;;;;;15.35;1.92;;;6.60;99.90;;;;;;4992781;28;20199;-60
2022/01/31 09:11:00;;;;;;;15.35;3.17;;;6.70;99.90;;;;;;5052372;28;20065;-60
2022/01/31 09:13:26;;;;;;;10.43;1.83;;;6.70;99.90;;;;;;4989879;28;20138;-61
2022/01/31 09:15:55;;;;;;;21.40;3.00;;;6.60;99.90;;;;;;4993905;28;20216;-62
2022/01/31 09:18:20;;;;;;;16.88;2.35;;;6.60;99.90;;;;;;5052044;28;20700;-63
2022/01/31 09:20:46;;;;;;;13.93;1.90;;;6.70;99.90;;;;;;4992920;28;20034;-61
2022/01/31 09:23:12;;;;;;;19.15;2.35;;;6.70;99.90;;;;;;5000506;28;20057;-64
2022/01/31 09:25:44;;;;;;;18.42;2.20;;;6.70;99.90;;;;;;4993852;28;20038;-63
2022/01/31 09:28:10;;;;;;;15.88;2.65;;;6.70;99.90;;;;;;4984435;28;20045;-63
2022/01/31 09:30:37;;;;;;;16.83;2.58;;;6.80;99.90;;;;;;4983284;28;20053;-63
2022/01/31 09:33:03;;;;;;;11.77;2.20;;;6.80;99.90;;;;;;5043748;28;20077;-60
2022/01/31 09:35:28;;;;;;;18.83;3.72;;;6.90;99.90;;;;;;4974609;28;20124;-64
2022/01/31 09:37:54;;;;;;;17.02;3.05;;;6.90;99.90;;;;;;4976396;28;20030;-64
2022/01/31 09:40:23;;;;;;;16.27;2.42;;;6.90;99.90;;;;;;5049458;28;20180;-62
2022/01/31 09:48:43;;;;;;;12.75;2.13;;;6.90;99.90;;;;;;4989829;28;20045;-61
2022/01/31 09:51:12;;;;;;;14.40;2.28;;;7.00;99.90;;;;;;4975977;28;20054;-64
2022/01/31 09:53:44;;;;;;;18.13;2.50;;;7.10;99.90;;;;;;5002452;22;20041;-56
2022/01/31 09:56:13;;;;;;;16.92;3.35;;;7.10;99.90;;;;;;4992408;28;20050;-57
2022/01/31 09:58:40;;;;;;;16.10;2.50;;;7.10;99.90;;;;;;4987634;28;20038;-55
2022/01/31 10:01:07;;;;;;;14.48;2.92;;;7.10;99.90;;;;;;5008859;28;20271;-54
2022/01/31 10:03:42;;;;;;;13.30;2.20;;;7.20;99.90;;;;;;4986481;28;20038;-55
2022/01/31 10:06:28;;;;;;;16.10;2.67;;;7.20;99.90;;;;;;4984995;28;20041;-54
2022/01/31 10:09:13;;;;;;;19.65;3.58;;;7.30;99.90;;;;;;4988162;28;20057;-56
2022/01/31 10:11:48;;;;;;;18.35;2.40;;;7.40;99.90;;;;;;5003610;27;20045;-54
2022/01/31 10:17:30;;;;;;;21.52;3.20;;;7.60;99.90;;;;;;5007381;27;20468;-54
2022/01/31 10:19:58;;;;;;;22.00;3.55;;;7.60;99.90;;;;;;4990697;28;20048;-54
2022/01/31 10:22:26;;;;;;;17.63;3.22;;;7.50;99.90;;;;;;4989775;28;20154;-54
2022/01/31 10:24:54;;;;;;;26.55;4.03;;;7.50;99.90;;;;;;4974527;28;20114;-55
2022/01/31 10:27:22;;;;;;;22.50;3.50;;;7.40;99.90;;;;;;4984581;28;20030;-54
2022/01/31 10:29:51;;;;;;;24.90;3.25;;;7.50;99.90;;;;;;4986475;28;20102;-55
2022/01/31 10:32:24;;;;;;;17.75;3.05;;;7.40;99.90;;;;;;5005865;27;20511;-54
2022/01/31 10:34:52;;;;;;;;;;;7.40;99.90;;;;;;4983795;28;21951;-54
2022/01/31 10:37:21;;;;;;;17.55;3.22;;;7.40;99.90;;;;;;4966492;28;19928;-56
2022/01/31 10:54:04;;;;;;;14.93;2.08;;;8.20;99.90;;;;;;4994290;28;20065;-56
2022/01/31 10:56:39;;;;;;;24.00;4.03;;;8.20;99.90;;;;;;5003190;28;20044;-56
2022/01/31 10:59:09;;;;;;;12.85;2.75;;;8.30;99.90;;;;;;5002447;28;20048;-55
2022/01/31 11:01:38;;;;;;;19.05;2.85;;;8.30;99.90;;;;;;5013814;28;20068;-55
2022/01/31 11:04:12;;;;;;;13.48;2.15;;;8.40;99.90;;;;;;5093349;27;20039;-55
2022/01/31 11:06:49;;;;;;;;;;;8.40;99.90;;;;;;4984481;28;20531;-53
2022/01/31 11:09:17;;;;;;;13.93;2.47;;;8.50;99.90;;;;;;4994390;28;19932;-55
2022/01/31 11:11:48;;;;;;;10.18;1.88;;;8.60;99.90;;;;;;4992254;28;20053;-53
2022/01/31 11:14:15;;;;;;;9.05;1.70;;;8.70;99.90;;;;;;4994638;28;20052;-54
2022/01/31 11:16:44;;;;;;;12.82;2.03;;;8.80;99.90;;;;;;4986031;28;20164;-55
2022/01/31 11:19:11;;;;;;;17.92;2.58;;;9.00;99.90;;;;;;4998054;28;20057;-52
2022/01/31 11:21:46;;;;;;;9.77;1.80;;;9.10;99.90;;;;;;5001594;28;20053;-54
2022/01/31 11:24:19;;;;;;;11.40;2.00;;;9.00;99.90;;;;;;4980999;28;20061;-53
2022/01/31 11:26:58;;;;;;;12.30;1.75;;;8.90;99.90;;;;;;4973320;28;20183;-54
2022/01/31 11:29:24;;;;;;;10.35;1.90;;;8.80;99.90;;;;;;5004623;28;20042;-55
2022/01/31 11:31:50;;;;;;;12.90;2.47;;;8.70;99.90;;;;;;5016175;28;20118;-54
2022/01/31 11:34:16;;;;;;;10.30;1.73;;;8.60;99.90;;;;;;5035084;28;20384;-54
2022/01/31 11:36:43;;;;;;;19.13;3.00;;;8.50;99.90;;;;;;5017540;28;20036;-55
2022/01/31 11:39:14;;;;;;;12.10;2.40;;;8.50;99.90;;;;;;5003166;28;20030;-55
2022/01/31 11:41:57;;;;;;;14.40;2.95;;;8.60;99.90;;;;;;5005020;28;20060;-53
2022/01/31 11:44:55;;;;;;;11.70;2.13;;;8.70;99.90;;;;;;4987221;28;20045;-56
2022/01/31 11:47:23;;;;;;;13.02;2.05;;;9.00;99.90;;;;;;5001109;28;20041;-54
2022/01/31 11:49:57;;;;;;;12.68;2.60;;;9.00;99.90;;;;;;5002231;28;20411;-56
2022/01/31 11:52:24;;;;;;;13.68;2.50;;;9.20;99.90;;;;;;5004055;28;20033;-57
2022/01/31 11:54:58;;;;;;;13.75;2.20;;;9.10;99.90;;;;;;4997362;28;20037;-58
2022/01/31 11:57:26;;;;;;;12.18;2.03;;;9.20;99.90;;;;;;5017522;28;20037;-56
2022/01/31 11:59:57;;;;;;;16.02;2.30;;;9.20;99.90;;;;;;5017252;28;20132;-55
2022/01/31 12:02:25;;;;;;;16.67;2.55;;;9.10;99.90;;;;;;5008283;28;20047;-55
2022/01/31 12:04:52;;;;;;;16.23;2.65;;;9.00;99.90;;;;;;4996268;28;21028;-55
2022/01/31 12:07:42;;;;;;;14.45;2.70;;;8.90;99.90;;;;;;4988284;28;20080;-56
2022/01/31 12:10:35;;;;;;;15.57;3.03;;;8.80;99.90;;;;;;4979619;28;21746;-58
2022/01/31 12:23:46;;;;;;;15.27;3.60;;;8.50;99.90;;;;;;5002668;28;20053;-56
2022/01/31 12:26:51;;;;;;;15.45;2.72;;;8.50;99.90;;;;;;4997472;28;20083;-55
2022/01/31 12:29:22;;;;;;;15.20;2.58;;;8.40;99.90;;;;;;4989716;28;20064;-57
2022/01/31 12:31:53;;;;;;;15.88;2.60;;;8.40;99.90;;;;;;4979331;28;22172;-58
2022/01/31 12:34:21;;;;;;;18.85;3.42;;;8.40;99.90;;;;;;4968135;28;20042;-55
2022/01/31 12:36:52;;;;;;;22.63;3.20;;;8.40;99.90;;;;;;4978506;28;20037;-56
2022/01/31 12:39:31;;;;;;;22.77;5.03;;;8.30;99.90;;;;;;4994554;28;20042;-54
2022/01/31 12:42:25;;;;;;;18.38;3.00;;;8.30;99.90;;;;;;4990772;28;20053;-54
2022/01/31 12:44:46;;;;;;;21.48;3.60;;;8.30;99.90;;;;;;5006951;28;20172;-53
2022/01/31 12:47:15;;;;;;;22.48;4.35;;;8.30;99.90;;;;;;4990489;28;20130;-55
2022/01/31 12:49:42;;;;;;;19.95;4.20;;;8.30;99.90;;;;;;4982226;27;20490;-54
2022/01/31 12:52:10;;;;;;;28.67;5.88;;;8.30;99.90;;;;;;4990721;28;20033;-56
2022/01/31 12:54:39;;;;;;;30.55;4.88;;;8.30;99.90;;;;;;5000045;27;20038;-54
2022/01/31 12:57:08;;;;;;;27.83;4.43;;;8.30;99.90;;;;;;5020175;27;20045;-54
2022/01/31 12:59:34;;;;;;;31.13;5.32;;;8.30;99.90;;;;;;4980047;28;20044;-55
2022/01/31 13:02:05;;;;;;;20.98;4.03;;;8.30;99.90;;;;;;4978827;28;20509;-56
2022/01/31 13:04:31;;;;;;;29.23;6.40;;;8.30;99.90;;;;;;5004360;28;20094;-56
2022/01/31 13:06:59;;;;;;;28.98;4.90;;;8.30;99.90;;;;;;4988102;28;20053;-57
2022/01/31 13:09:29;;;;;;;18.65;4.20;;;8.30;99.90;;;;;;4987943;28;20154;-56
2022/01/31 13:11:59;;;;;;;23.63;4.88;;;8.20;99.90;;;;;;4981585;28;20048;-57
2022/01/31 13:14:30;;;;;;;33.67;5.60;;;8.30;99.90;;;;;;4988517;28;20504;-56
2022/01/31 13:17:10;;;;;;;32.22;6.47;;;8.30;99.90;;;;;;5010202;28;20080;-52
2022/01/31 13:19:50;;;;;;;32.38;5.25;;;8.20;99.90;;;;;;5018675;27;20034;-53
2022/01/31 13:22:39;;;;;;;28.90;5.05;;;8.20;99.90;;;;;;5010693;28;20224;-57
2022/01/31 13:25:15;;;;;;;32.45;6.85;;;8.20;99.90;;;;;;4994161;28;20443;-53
2022/01/31 13:27:44;;;;;;;31.27;5.05;;;8.10;99.90;;;;;;5011420;28;20050;-56
2022/01/31 13:30:22;;;;;;;31.63;5.10;;;8.10;99.90;;;;;;4994053;28;20517;-54
2022/01/31 13:32:48;;;;;;;33.03;5.07;;;8.10;99.90;;;;;;4990872;28;20058;-56
2022/01/31 13:35:19;;;;;;;25.02;4.15;;;8.10;99.90;;;;;;4988303;28;20077;-53
2022/01/31 13:37:52;;;;;;;23.55;5.10;;;8.10;99.90;;;;;;4995100;28;20034;-52
2022/01/31 13:40:36;;;;;;;25.35;6.03;;;8.10;99.90;;;;;;4996173;28;20556;-52